Time;durP1;ratioP1;P1;durP2;ratioP2;P2;SDS_P1;SDS_P2;PMS_P1;PMS_P2;Temp;Humidity;BMP_temperature;BMP_pressure;BME280_temperature;BME280_humidity;BME280_pressure;Samples;Min_cycle;Max_cycle;Signal;HPM_P1;HPM_P2
2023/12/16 00:01:47;;;;;;;10.43;2.40;;;8.70;99.90;;;;;;5067998;28;20029;-76
2023/12/16 00:04:13;;;;;;;17.50;2.55;;;8.70;99.90;;;;;;5070406;28;20382;-76
2023/12/16 00:06:39;;;;;;;12.77;2.65;;;8.70;99.90;;;;;;5070901;28;20098;-76
2023/12/16 00:09:04;;;;;;;12.57;2.88;;;8.60;99.90;;;;;;5074748;28;20070;-76
2023/12/16 00:11:30;;;;;;;12.88;2.92;;;8.60;99.90;;;;;;5070339;28;20023;-75
2023/12/16 00:13:56;;;;;;;15.77;3.05;;;8.60;99.90;;;;;;5074020;28;20032;-76
2023/12/16 00:16:23;;;;;;;16.65;2.88;;;8.50;99.90;;;;;;5090186;28;20522;-76
2023/12/16 00:18:49;;;;;;;13.15;2.88;;;8.50;99.90;;;;;;5065664;28;20025;-76
2023/12/16 00:21:15;;;;;;;14.77;2.92;;;8.50;99.90;;;;;;5062174;28;20609;-76
2023/12/16 00:23:40;;;;;;;15.38;3.20;;;8.40;99.90;;;;;;5071242;28;20095;-76
2023/12/16 00:26:06;;;;;;;14.73;3.00;;;8.40;99.90;;;;;;5076857;28;20065;-76
2023/12/16 00:28:31;;;;;;;14.80;3.20;;;8.40;99.90;;;;;;5066647;28;20013;-76
2023/12/16 00:30:57;;;;;;;13.80;3.35;;;8.40;99.90;;;;;;5076978;28;20036;-76
2023/12/16 00:33:23;;;;;;;13.57;2.88;;;8.30;99.90;;;;;;5064870;28;20020;-76
2023/12/16 00:35:48;;;;;;;20.95;3.78;;;8.30;99.90;;;;;;5077231;28;20040;-76
2023/12/16 00:38:14;;;;;;;19.63;3.55;;;8.30;99.90;;;;;;5073154;28;20020;-76
2023/12/16 00:40:40;;;;;;;19.35;3.95;;;8.30;99.90;;;;;;5079347;28;20043;-76
2023/12/16 00:43:05;;;;;;;20.70;3.75;;;8.20;99.90;;;;;;5066706;28;20095;-75
2023/12/16 00:45:31;;;;;;;18.58;3.45;;;8.20;99.90;;;;;;5073289;28;20564;-76
2023/12/16 00:47:57;;;;;;;21.35;3.75;;;8.20;99.90;;;;;;5065968;28;20099;-76
2023/12/16 00:50:22;;;;;;;20.63;3.97;;;8.10;99.90;;;;;;5080841;28;20021;-76
2023/12/16 00:52:48;;;;;;;24.42;3.92;;;8.10;99.90;;;;;;5072879;28;20475;-76
2023/12/16 00:55:13;;;;;;;20.42;3.63;;;8.10;99.90;;;;;;5061367;28;20033;-76
2023/12/16 00:57:39;;;;;;;20.95;4.13;;;8.10;99.90;;;;;;5060075;28;20494;-76
2023/12/16 01:00:06;;;;;;;17.10;4.13;;;8.00;99.90;;;;;;5067468;28;20051;-76
2023/12/16 01:02:32;;;;;;;19.02;3.90;;;8.00;99.90;;;;;;5078323;28;20074;-76
2023/12/16 01:04:57;;;;;;;17.55;4.20;;;8.00;99.90;;;;;;5062447;28;20032;-76
2023/12/16 01:07:23;;;;;;;23.05;5.00;;;8.00;99.90;;;;;;5066147;28;20046;-76
2023/12/16 01:09:53;;;;;;;25.00;4.35;;;8.00;99.90;;;;;;5065082;28;20025;-76
2023/12/16 01:12:18;;;;;;;22.90;4.63;;;8.00;99.90;;;;;;5069240;28;20078;-76
2023/12/16 01:14:44;;;;;;;21.98;4.30;;;7.90;99.90;;;;;;5060890;28;20375;-75
2023/12/16 01:17:10;;;;;;;23.02;4.50;;;7.90;99.90;;;;;;5068144;28;20107;-76
2023/12/16 01:19:35;;;;;;;24.15;4.70;;;7.80;99.90;;;;;;5083810;28;20012;-76
2023/12/16 01:22:01;;;;;;;19.50;4.78;;;7.80;99.90;;;;;;5065371;28;20061;-76
2023/12/16 01:24:27;;;;;;;22.75;4.95;;;7.80;99.90;;;;;;5069938;28;20048;-76
2023/12/16 01:26:52;;;;;;;19.13;4.80;;;7.80;99.90;;;;;;5082387;28;20024;-76
2023/12/16 01:29:18;;;;;;;23.30;5.18;;;7.80;99.90;;;;;;5084454;28;20047;-76
2023/12/16 01:31:44;;;;;;;21.17;5.53;;;7.70;99.90;;;;;;5078535;28;20028;-76
2023/12/16 01:34:09;;;;;;;23.08;4.85;;;7.70;99.90;;;;;;5078340;28;20020;-76
2023/12/16 01:36:35;;;;;;;25.00;5.38;;;7.70;99.90;;;;;;5078307;28;20432;-76
2023/12/16 01:39:00;;;;;;;29.25;5.40;;;7.60;99.90;;;;;;5064967;28;20040;-76
2023/12/16 01:41:26;;;;;;;24.48;5.57;;;7.60;99.90;;;;;;5059480;28;20089;-76
2023/12/16 01:43:52;;;;;;;20.90;5.88;;;7.60;99.90;;;;;;5072509;28;20260;-76
2023/12/16 01:46:19;;;;;;;19.67;5.05;;;7.60;99.90;;;;;;5082626;28;20030;-75
2023/12/16 01:48:46;;;;;;;27.33;5.97;;;7.60;99.90;;;;;;5072498;28;20085;-76
2023/12/16 01:51:13;;;;;;;27.95;6.22;;;7.60;99.90;;;;;;5087492;28;20065;-76
2023/12/16 01:53:40;;;;;;;25.02;5.90;;;7.60;99.90;;;;;;5070197;28;20062;-76
2023/12/16 01:56:07;;;;;;;24.90;6.70;;;7.60;99.90;;;;;;5063726;28;20037;-76
2023/12/16 01:58:35;;;;;;;26.70;6.50;;;7.60;99.90;;;;;;5068075;28;20056;-76
2023/12/16 02:01:01;;;;;;;23.98;6.35;;;7.60;99.90;;;;;;5068700;28;20025;-76
2023/12/16 02:03:28;;;;;;;21.38;6.50;;;7.60;99.90;;;;;;5077529;28;20104;-75
2023/12/16 02:05:55;;;;;;;26.65;6.68;;;7.60;99.90;;;;;;5074048;28;20028;-76
2023/12/16 02:08:20;;;;;;;28.42;7.28;;;7.60;99.90;;;;;;5070484;28;20021;-76
2023/12/16 02:10:46;;;;;;;24.17;6.20;;;7.60;99.90;;;;;;5055987;28;20025;-76
2023/12/16 02:13:12;;;;;;;28.00;7.53;;;7.60;99.90;;;;;;5071472;28;20070;-76
2023/12/16 02:15:38;;;;;;;24.95;6.45;;;7.60;99.90;;;;;;5073029;28;20033;-76
2023/12/16 02:18:04;;;;;;;25.92;6.03;;;7.60;99.90;;;;;;5053400;28;20026;-76
2023/12/16 02:20:29;;;;;;;30.58;6.25;;;7.60;99.90;;;;;;5058795;28;20017;-76
2023/12/16 02:22:55;;;;;;;22.20;5.65;;;7.70;99.90;;;;;;5068379;28;20476;-76
2023/12/16 02:25:21;;;;;;;34.83;6.45;;;7.70;99.90;;;;;;5088318;28;20013;-76
2023/12/16 02:27:46;;;;;;;21.58;6.28;;;7.70;99.90;;;;;;5072883;28;20070;-76
2023/12/16 02:30:12;;;;;;;26.63;5.70;;;7.70;99.90;;;;;;5070375;28;20044;-76
2023/12/16 02:32:38;;;;;;;26.67;6.68;;;7.70;99.90;;;;;;5070931;28;20024;-76
2023/12/16 02:35:04;;;;;;;29.30;5.97;;;7.70;99.90;;;;;;5079347;28;20032;-76
2023/12/16 02:37:30;;;;;;;20.85;5.78;;;7.70;99.90;;;;;;5072875;28;20024;-76
2023/12/16 02:39:55;;;;;;;26.23;6.50;;;7.70;99.90;;;;;;5080506;28;20020;-76
2023/12/16 02:42:21;;;;;;;29.38;6.60;;;7.70;99.90;;;;;;5065806;28;20047;-76
2023/12/16 02:44:47;;;;;;;22.02;6.18;;;7.70;99.90;;;;;;5080027;28;20098;-76
2023/12/16 02:47:13;;;;;;;26.60;6.30;;;7.70;99.90;;;;;;5082747;28;20108;-76
2023/12/16 02:49:38;;;;;;;31.73;6.68;;;7.60;99.90;;;;;;5078126;28;20625;-76
2023/12/16 02:52:04;;;;;;;21.83;5.82;;;7.60;99.90;;;;;;5069068;28;20047;-76
2023/12/16 02:54:30;;;;;;;22.48;6.18;;;7.60;99.90;;;;;;5066995;28;20212;-76
2023/12/16 02:56:56;;;;;;;32.38;6.47;;;7.60;99.90;;;;;;5076856;28;20186;-76
2023/12/16 02:59:21;;;;;;;32.75;6.50;;;7.60;99.90;;;;;;5072942;28;20024;-76
2023/12/16 03:01:47;;;;;;;23.02;5.57;;;7.60;99.90;;;;;;5069017;28;20024;-76
2023/12/16 04:16:09;;;;;;;31.83;6.30;;;6.90;99.90;;;;;;5144551;27;20450;-75
2023/12/16 04:18:36;;;;;;;30.10;6.85;;;7.20;99.90;;;;;;5139641;27;20030;-75
2023/12/16 04:21:01;;;;;;;32.47;7.10;;;7.10;99.90;;;;;;5143227;27;20447;-75
2023/12/16 04:23:28;;;;;;;30.45;6.35;;;7.10;99.90;;;;;;5134491;27;20026;-75
2023/12/16 04:25:54;;;;;;;32.05;6.78;;;7.10;99.90;;;;;;5146632;27;20020;-75
2023/12/16 04:28:19;;;;;;;31.60;6.68;;;7.10;99.90;;;;;;5138646;27;20019;-76
2023/12/16 04:30:45;;;;;;;45.47;7.55;;;7.10;99.90;;;;;;5139100;27;20015;-75
2023/12/16 04:33:10;;;;;;;28.00;6.65;;;7.10;99.90;;;;;;5148538;27;20053;-76
2023/12/16 04:35:36;;;;;;;27.13;6.82;;;7.10;99.90;;;;;;5144702;27;20031;-75
2023/12/16 04:38:01;;;;;;;35.30;7.00;;;7.10;99.90;;;;;;5127842;27;20031;-75
2023/12/16 04:40:27;;;;;;;32.10;7.35;;;7.10;99.90;;;;;;5134331;27;20015;-75
2023/12/16 04:42:53;;;;;;;30.42;7.05;;;7.10;99.90;;;;;;5147401;27;20118;-75
2023/12/16 04:45:19;;;;;;;37.22;7.00;;;7.10;99.90;;;;;;5147360;27;20037;-75
2023/12/16 04:47:45;;;;;;;31.48;7.45;;;7.10;99.90;;;;;;5143320;27;20019;-75
2023/12/16 04:50:11;;;;;;;43.53;7.20;;;7.10;99.90;;;;;;5143463;27;20007;-76
2023/12/16 04:52:36;;;;;;;31.20;6.93;;;7.10;99.90;;;;;;5142526;27;20040;-75
2023/12/16 04:55:03;;;;;;;37.47;7.57;;;7.10;99.90;;;;;;5135579;27;20032;-75
2023/12/16 04:57:28;;;;;;;36.38;6.13;;;7.10;99.90;;;;;;5137728;27;20015;-75
2023/12/16 04:59:54;;;;;;;31.48;6.75;;;7.20;99.90;;;;;;5140659;27;20025;-76
2023/12/16 05:02:19;;;;;;;26.50;6.78;;;7.20;99.90;;;;;;5137152;27;20029;-75
2023/12/16 05:04:45;;;;;;;30.90;6.20;;;7.20;99.90;;;;;;5132649;27;20027;-74
2023/12/16 05:07:11;;;;;;;36.22;6.78;;;7.20;99.90;;;;;;5128407;27;20057;-74
2023/12/16 05:09:36;;;;;;;27.15;6.30;;;7.20;99.90;;;;;;5118091;28;20024;-74
2023/12/16 05:12:02;;;;;;;40.13;7.03;;;7.20;99.90;;;;;;5107893;28;20035;-74
2023/12/16 05:14:27;;;;;;;41.95;6.68;;;7.20;99.90;;;;;;5100140;28;20045;-74
2023/12/16 05:16:53;;;;;;;36.30;6.60;;;7.20;99.90;;;;;;5023546;28;20075;-74
2023/12/16 05:19:19;;;;;;;34.17;6.13;;;7.30;99.90;;;;;;5027630;28;20456;-74
2023/12/16 05:21:45;;;;;;;35.70;6.05;;;7.30;99.90;;;;;;5031459;28;20053;-74
2023/12/16 05:24:10;;;;;;;37.63;6.10;;;7.30;99.90;;;;;;5028347;28;20481;-74
2023/12/16 05:26:36;;;;;;;43.13;6.32;;;7.30;99.90;;;;;;5030372;28;20057;-74
2023/12/16 05:29:01;;;;;;;36.28;6.25;;;7.30;99.90;;;;;;5024282;28;20026;-74
2023/12/16 05:31:27;;;;;;;36.55;6.30;;;7.40;99.90;;;;;;5023044;28;20038;-74
2023/12/16 05:33:52;;;;;;;31.65;5.85;;;7.40;99.90;;;;;;5096351;28;20026;-74
2023/12/16 05:36:18;;;;;;;37.60;5.93;;;7.40;99.90;;;;;;5027603;28;20427;-74
2023/12/16 05:38:44;;;;;;;33.42;6.10;;;7.40;99.90;;;;;;5023483;28;20014;-74
2023/12/16 05:41:13;;;;;;;32.28;5.38;;;7.40;99.90;;;;;;5023780;28;20018;-74
2023/12/16 05:43:38;;;;;;;35.17;5.90;;;7.40;99.90;;;;;;5020148;28;20029;-74
2023/12/16 05:46:04;;;;;;;35.83;5.65;;;7.40;99.90;;;;;;5019780;28;20026;-74
2023/12/16 05:48:31;;;;;;;35.13;6.03;;;7.40;99.90;;;;;;5029436;28;20022;-74
2023/12/16 05:50:57;;;;;;;40.92;5.95;;;7.40;99.90;;;;;;5026418;28;20045;-74
2023/12/16 05:53:22;;;;;;;28.13;4.95;;;7.40;99.90;;;;;;5027248;28;20053;-75
2023/12/16 05:55:48;;;;;;;34.95;5.70;;;7.40;99.90;;;;;;5023299;28;20121;-74
2023/12/16 05:58:14;;;;;;;33.05;5.78;;;7.30;99.90;;;;;;5024505;28;20417;-74
2023/12/16 06:00:40;;;;;;;35.90;5.72;;;7.40;99.90;;;;;;5021795;28;20022;-74
2023/12/16 06:03:05;;;;;;;41.53;6.15;;;7.30;99.90;;;;;;5020099;28;20101;-74
2023/12/16 06:05:31;;;;;;;31.17;5.47;;;7.30;99.90;;;;;;5022513;28;20033;-74
2023/12/16 06:07:56;;;;;;;34.75;6.35;;;7.30;99.90;;;;;;5020778;28;20516;-74
2023/12/16 06:10:22;;;;;;;34.15;6.65;;;7.30;99.90;;;;;;5017145;28;20018;-75
2023/12/16 06:12:47;;;;;;;29.25;6.50;;;7.30;99.90;;;;;;5012813;28;20024;-74
2023/12/16 06:15:13;;;;;;;33.78;5.90;;;7.30;99.90;;;;;;5023721;28;20413;-74
2023/12/16 06:17:39;;;;;;;32.35;6.28;;;7.20;99.90;;;;;;5028439;28;20028;-74
2023/12/16 06:20:05;;;;;;;34.83;5.90;;;7.20;99.90;;;;;;5027001;28;20026;-74
2023/12/16 06:22:30;;;;;;;32.60;5.95;;;7.20;99.90;;;;;;5028099;28;20022;-75
2023/12/16 06:24:58;;;;;;;31.25;5.90;;;7.20;99.90;;;;;;5027028;28;20376;-75
2023/12/16 06:27:23;;;;;;;34.72;6.65;;;7.10;99.90;;;;;;5026246;28;20384;-76
2023/12/16 06:29:49;;;;;;;28.75;6.38;;;7.10;99.90;;;;;;5026446;28;20022;-75
2023/12/16 06:32:15;;;;;;;36.97;5.88;;;7.10;99.90;;;;;;5023389;28;20120;-75
2023/12/16 06:34:41;;;;;;;33.83;6.25;;;7.10;99.90;;;;;;5024645;28;20058;-75
2023/12/16 06:37:06;;;;;;;33.13;5.70;;;7.10;99.90;;;;;;5019396;28;20034;-75
2023/12/16 06:39:32;;;;;;;45.50;6.55;;;7.20;99.90;;;;;;5022215;28;20018;-75
2023/12/16 06:41:58;;;;;;;29.55;5.50;;;7.20;99.90;;;;;;5015904;28;20030;-75
2023/12/16 06:44:24;;;;;;;37.55;5.55;;;7.20;99.90;;;;;;5025856;28;20029;-75
2023/12/16 06:46:49;;;;;;;33.85;6.43;;;7.20;99.90;;;;;;5026135;28;20041;-76
2023/12/16 06:49:15;;;;;;;35.30;5.90;;;7.20;99.90;;;;;;5034244;28;20018;-76
2023/12/16 06:51:40;;;;;;;36.85;6.18;;;7.20;99.90;;;;;;5032017;28;20030;-76
2023/12/16 06:54:06;;;;;;;36.90;6.07;;;7.20;99.90;;;;;;5041992;28;20092;-74
2023/12/16 06:56:32;;;;;;;32.58;5.93;;;7.20;99.90;;;;;;5026549;28;20018;-74
2023/12/16 06:58:58;;;;;;;38.45;6.43;;;7.20;99.90;;;;;;5029431;28;20499;-74
2023/12/16 07:01:24;;;;;;;35.90;6.90;;;7.20;99.90;;;;;;5026977;28;20040;-74
2023/12/16 07:03:50;;;;;;;33.35;6.57;;;7.20;99.90;;;;;;5018737;28;20037;-74
2023/12/16 07:06:19;;;;;;;41.47;6.82;;;7.20;99.90;;;;;;5021230;28;20087;-74
2023/12/16 07:08:45;;;;;;;38.20;6.20;;;7.10;99.90;;;;;;5014490;28;20049;-74
2023/12/16 07:11:12;;;;;;;29.10;5.65;;;7.10;99.90;;;;;;5099167;27;20385;-74
2023/12/16 07:13:38;;;;;;;41.30;6.18;;;7.10;99.90;;;;;;5021775;28;20507;-74
2023/12/16 07:16:04;;;;;;;27.65;6.05;;;7.10;99.90;;;;;;5029618;28;20049;-74
2023/12/16 07:18:30;;;;;;;32.28;6.50;;;7.10;99.90;;;;;;5018190;28;20374;-74
2023/12/16 07:20:56;;;;;;;36.78;6.25;;;7.10;99.90;;;;;;5019199;28;20477;-74
2023/12/16 07:23:21;;;;;;;29.67;6.93;;;7.20;99.90;;;;;;5018024;28;20150;-74
2023/12/16 07:25:47;;;;;;;29.95;5.90;;;7.10;99.90;;;;;;5021513;28;20029;-74
2023/12/16 07:28:13;;;;;;;31.08;6.15;;;7.10;99.90;;;;;;5014922;28;20029;-74
2023/12/16 07:30:39;;;;;;;31.83;6.93;;;7.10;99.90;;;;;;5027216;28;20030;-74
2023/12/16 07:33:04;;;;;;;34.70;5.80;;;7.10;99.90;;;;;;5028664;28;20038;-74
2023/12/16 07:35:30;;;;;;;29.88;5.75;;;7.10;99.90;;;;;;5017719;28;20026;-74
2023/12/16 07:37:55;;;;;;;29.90;6.07;;;7.10;99.90;;;;;;5029221;28;20079;-74
2023/12/16 07:40:21;;;;;;;32.58;6.45;;;7.10;99.90;;;;;;5014762;28;20034;-74
2023/12/16 07:42:47;;;;;;;32.83;6.28;;;7.10;99.90;;;;;;5022026;28;20019;-74
2023/12/16 07:45:12;;;;;;;27.80;6.40;;;7.10;99.90;;;;;;5021425;28;20029;-74
2023/12/16 07:47:38;;;;;;;35.00;6.53;;;7.10;99.90;;;;;;5026698;28;20075;-74
2023/12/16 07:50:04;;;;;;;32.15;7.10;;;7.10;99.90;;;;;;5025714;28;20021;-74
2023/12/16 07:52:30;;;;;;;27.45;6.25;;;7.10;99.90;;;;;;5020855;28;20045;-74
2023/12/16 07:54:56;;;;;;;38.67;7.20;;;7.10;99.90;;;;;;5023096;28;20026;-74
2023/12/16 07:57:21;;;;;;;36.20;7.20;;;7.20;99.90;;;;;;5028355;28;20030;-74
2023/12/16 07:59:47;;;;;;;39.38;6.55;;;7.20;99.90;;;;;;5028210;28;20028;-74
2023/12/16 08:02:13;;;;;;;28.67;5.80;;;7.30;99.90;;;;;;5021447;28;20542;-74
2023/12/16 08:04:39;;;;;;;36.40;6.53;;;7.40;99.90;;;;;;5026297;28;20033;-74
2023/12/16 08:07:05;;;;;;;41.55;7.22;;;7.40;99.90;;;;;;5020917;28;20058;-74
2023/12/16 08:09:31;;;;;;;32.58;6.47;;;7.40;99.90;;;;;;5012704;28;20524;-74
2023/12/16 08:11:58;;;;;;;29.15;6.65;;;7.50;99.90;;;;;;5024982;28;20517;-74
2023/12/16 08:14:25;;;;;;;35.78;6.82;;;7.50;99.90;;;;;;5025199;28;20053;-75
2023/12/16 08:16:50;;;;;;;34.30;6.82;;;7.50;99.90;;;;;;5028097;28;20025;-74
2023/12/16 08:19:16;;;;;;;40.85;6.95;;;7.60;99.90;;;;;;5028132;28;20017;-74
2023/12/16 08:21:41;;;;;;;29.75;6.50;;;7.60;99.90;;;;;;5014517;28;20101;-74
2023/12/16 08:24:07;;;;;;;39.20;7.38;;;7.60;99.90;;;;;;5026742;28;20100;-74
2023/12/16 08:26:32;;;;;;;32.58;6.65;;;7.70;99.90;;;;;;5023941;28;20438;-74
2023/12/16 08:28:58;;;;;;;42.03;7.43;;;7.70;99.90;;;;;;5026393;28;20018;-75
2023/12/16 08:31:23;;;;;;;42.92;7.13;;;7.70;99.90;;;;;;5022822;28;20457;-74
2023/12/16 08:33:49;;;;;;;41.97;6.88;;;7.80;99.90;;;;;;5024446;28;20032;-76
2023/12/16 08:36:15;;;;;;;30.02;6.00;;;7.90;99.90;;;;;;5022812;28;20074;-76
2023/12/16 08:38:40;;;;;;;35.90;7.00;;;7.90;99.90;;;;;;5024340;28;20113;-75
2023/12/16 08:41:08;;;;;;;36.05;6.82;;;8.00;99.90;;;;;;5023680;28;20036;-73
2023/12/16 08:43:34;;;;;;;35.78;6.10;;;8.00;99.90;;;;;;5021666;28;20389;-73
2023/12/16 08:46:00;;;;;;;33.40;6.03;;;8.10;99.90;;;;;;5025751;28;20108;-73
2023/12/16 08:48:26;;;;;;;35.22;6.43;;;8.10;99.90;;;;;;5027457;28;20579;-73
2023/12/16 08:50:53;;;;;;;31.20;6.15;;;8.20;99.90;;;;;;5019668;28;20033;-73
2023/12/16 08:53:19;;;;;;;38.92;6.10;;;8.20;99.90;;;;;;5022574;28;20429;-73
2023/12/16 08:55:45;;;;;;;34.30;6.60;;;8.30;99.90;;;;;;5021235;28;20091;-73
2023/12/16 08:58:10;;;;;;;30.33;6.63;;;8.30;99.90;;;;;;5016161;28;20062;-73
2023/12/16 09:00:36;;;;;;;34.70;6.47;;;8.30;99.90;;;;;;5026732;28;20067;-73
2023/12/16 09:03:01;;;;;;;26.08;5.78;;;8.40;99.90;;;;;;5029830;28;20032;-73
2023/12/16 09:05:28;;;;;;;38.88;6.03;;;8.40;99.90;;;;;;5099786;28;20029;-74
2023/12/16 09:07:54;;;;;;;36.35;6.15;;;8.40;99.90;;;;;;5024874;28;20022;-74
2023/12/16 09:10:20;;;;;;;32.63;6.35;;;8.40;99.90;;;;;;5020263;28;20033;-74
2023/12/16 09:12:47;;;;;;;36.88;6.60;;;8.50;99.90;;;;;;5025294;28;20058;-74
2023/12/16 09:15:13;;;;;;;29.92;6.07;;;8.50;99.90;;;;;;5096843;28;20049;-74
2023/12/16 09:17:39;;;;;;;35.70;7.03;;;8.50;99.90;;;;;;5077204;28;20032;-74
2023/12/16 09:20:05;;;;;;;35.95;6.60;;;8.60;99.90;;;;;;5030431;28;20125;-74
2023/12/16 09:22:31;;;;;;;45.42;7.50;;;8.60;99.90;;;;;;5021715;28;20079;-73
2023/12/16 09:24:57;;;;;;;36.55;6.70;;;8.60;99.90;;;;;;5030141;28;20026;-74
2023/12/16 09:27:22;;;;;;;32.40;6.85;;;8.70;99.90;;;;;;5025428;28;20018;-74
2023/12/16 09:29:48;;;;;;;33.30;6.97;;;8.70;99.90;;;;;;5030341;28;20018;-73
2023/12/16 09:32:14;;;;;;;43.17;7.55;;;8.80;99.90;;;;;;5026533;28;20382;-73
2023/12/16 09:34:42;;;;;;;36.30;7.13;;;8.80;99.90;;;;;;5017038;28;20033;-74
2023/12/16 09:37:08;;;;;;;39.58;9.48;;;8.90;99.90;;;;;;5015145;28;20033;-73
2023/12/16 09:39:34;;;;;;;46.08;9.02;;;8.90;99.90;;;;;;5025985;28;20151;-74
2023/12/16 09:42:03;;;;;;;45.35;10.30;;;8.90;99.90;;;;;;5021622;28;20101;-74
2023/12/16 09:44:35;;;;;;;40.38;10.65;;;9.00;99.90;;;;;;5027336;28;20119;-74
2023/12/16 09:47:01;;;;;;;34.42;11.25;;;9.00;99.90;;;;;;5094878;28;20029;-73
2023/12/16 09:49:29;;;;;;;35.60;11.10;;;9.10;99.90;;;;;;5030569;28;20357;-74
2023/12/16 09:51:55;;;;;;;41.00;12.05;;;9.10;99.90;;;;;;5019104;28;20122;-74
2023/12/16 09:54:20;;;;;;;34.85;11.20;;;9.20;99.90;;;;;;5027274;28;20063;-74
2023/12/16 09:56:49;;;;;;;28.33;11.30;;;9.20;99.90;;;;;;5029693;28;20528;-74
2023/12/16 09:59:16;;;;;;;32.58;10.55;;;9.30;99.90;;;;;;5024831;28;20033;-75
2023/12/16 10:01:52;;;;;;;33.38;12.40;;;9.20;99.90;;;;;;5062417;27;20026;-74
2023/12/16 10:04:18;;;;;;;36.75;12.38;;;9.30;99.90;;;;;;5026391;28;20469;-75
2023/12/16 10:06:44;;;;;;;30.25;9.88;;;9.30;99.90;;;;;;5027620;28;20485;-74
2023/12/16 10:09:10;;;;;;;37.00;10.07;;;9.30;99.90;;;;;;5025749;28;20025;-74
2023/12/16 10:11:39;;;;;;;29.75;10.50;;;9.30;99.90;;;;;;5026619;28;20039;-74
2023/12/16 10:14:05;;;;;;;40.20;12.95;;;9.30;99.90;;;;;;5029597;28;20049;-74
2023/12/16 10:16:31;;;;;;;29.00;11.77;;;9.30;99.90;;;;;;5066878;28;20037;-74
2023/12/16 10:18:58;;;;;;;32.00;11.07;;;9.40;99.90;;;;;;5035532;28;20021;-74
2023/12/16 10:21:26;;;;;;;26.52;9.50;;;9.40;99.90;;;;;;5057701;28;20023;-74
2023/12/16 10:23:52;;;;;;;20.20;8.13;;;9.40;99.90;;;;;;5034837;28;20033;-75
2023/12/16 10:26:18;;;;;;;24.38;8.45;;;9.40;99.90;;;;;;5015224;28;20022;-74
2023/12/16 10:28:47;;;;;;;20.25;9.00;;;9.40;99.90;;;;;;5093374;28;20084;-74
2023/12/16 10:31:15;;;;;;;26.85;12.70;;;9.40;99.90;;;;;;5023797;28;20026;-74
2023/12/16 10:33:41;;;;;;;28.70;12.75;;;9.40;99.90;;;;;;5020282;28;20465;-74
2023/12/16 10:36:08;;;;;;;33.15;13.52;;;9.40;99.90;;;;;;5026688;28;20026;-74
2023/12/16 10:38:33;;;;;;;31.10;15.23;;;9.40;99.90;;;;;;5027710;28;20101;-74
2023/12/16 10:40:59;;;;;;;37.67;16.25;;;9.40;99.90;;;;;;5025608;28;20100;-74
2023/12/16 10:43:24;;;;;;;33.97;14.85;;;9.40;99.90;;;;;;5024818;28;20102;-74
2023/12/16 10:45:50;;;;;;;34.40;12.55;;;9.40;99.90;;;;;;5108917;27;20021;-75
2023/12/16 10:48:20;;;;;;;26.30;10.10;;;9.40;99.90;;;;;;5021367;28;20385;-75
2023/12/16 10:50:48;;;;;;;28.67;10.30;;;9.40;99.90;;;;;;5019400;28;20029;-75
2023/12/16 10:53:40;;;;;;;29.17;10.10;;;9.40;99.90;;;;;;5024631;28;20024;-74
2023/12/16 10:56:17;;;;;;;27.42;11.40;;;9.40;99.90;;;;;;5095355;28;20034;-74
2023/12/16 10:58:54;;;;;;;27.45;12.55;;;9.40;99.90;;;;;;5028365;28;20025;-75
2023/12/16 11:01:22;;;;;;;35.55;14.65;;;9.40;99.90;;;;;;5028233;28;20086;-75
2023/12/16 11:04:14;;;;;;;34.97;15.70;;;9.40;99.90;;;;;;5029182;28;20037;-75
2023/12/16 11:06:54;;;;;;;32.20;14.23;;;9.40;99.90;;;;;;5024375;28;20038;-75
2023/12/16 11:09:21;;;;;;;34.17;15.60;;;9.40;99.90;;;;;;5096993;28;20117;-75
2023/12/16 11:11:47;;;;;;;26.88;13.98;;;9.40;99.90;;;;;;5092483;28;20443;-75
2023/12/16 11:14:14;;;;;;;26.33;12.73;;;9.40;99.90;;;;;;5023455;28;20065;-75
2023/12/16 11:16:57;;;;;;;24.35;12.02;;;9.40;99.90;;;;;;5028654;28;20044;-75
2023/12/16 11:19:28;;;;;;;28.65;12.60;;;9.40;99.90;;;;;;5018088;28;20135;-75
2023/12/16 11:21:54;;;;;;;31.23;15.52;;;9.40;99.90;;;;;;5021551;28;20110;-75
2023/12/16 11:24:20;;;;;;;33.55;16.23;;;9.40;99.90;;;;;;5025931;27;20049;-75
2023/12/16 11:26:55;;;;;;;28.77;13.20;;;9.40;99.90;;;;;;5023073;28;20105;-75
2023/12/16 11:29:24;;;;;;;29.45;10.93;;;9.50;99.90;;;;;;5026263;28;20044;-75
2023/12/16 11:31:53;;;;;;;21.42;9.00;;;9.50;99.90;;;;;;5029242;27;20380;-75
2023/12/16 11:34:47;;;;;;;17.15;8.48;;;9.50;99.90;;;;;;5019932;28;20034;-75
2023/12/16 11:37:12;;;;;;;18.35;8.02;;;9.50;99.90;;;;;;5019938;28;20025;-75
2023/12/16 11:39:45;;;;;;;16.38;7.60;;;9.50;99.90;;;;;;5023131;28;20487;-75
2023/12/16 11:42:12;;;;;;;15.85;7.72;;;9.50;99.90;;;;;;5029387;28;20077;-75
2023/12/16 11:44:47;;;;;;;18.98;8.27;;;9.50;99.90;;;;;;5019872;28;20037;-73
2023/12/16 11:47:39;;;;;;;15.35;7.85;;;9.50;99.90;;;;;;5021274;28;20048;-75
2023/12/16 11:50:05;;;;;;;18.60;10.00;;;9.50;99.90;;;;;;5024811;27;20059;-75
2023/12/16 11:52:31;;;;;;;16.70;7.53;;;9.50;99.90;;;;;;5027526;28;20497;-75
2023/12/16 11:54:58;;;;;;;18.15;7.50;;;9.50;99.90;;;;;;5028337;28;20021;-75
2023/12/16 11:57:25;;;;;;;15.85;7.82;;;9.60;99.90;;;;;;5027230;28;20361;-75
2023/12/16 11:59:51;;;;;;;18.17;7.80;;;9.50;99.90;;;;;;5027089;28;20026;-74
2023/12/16 12:02:18;;;;;;;17.33;7.43;;;9.60;99.90;;;;;;5025728;28;20391;-74
2023/12/16 12:04:49;;;;;;;14.38;7.53;;;9.60;99.90;;;;;;5022803;28;20033;-74
2023/12/16 12:07:15;;;;;;;13.70;7.32;;;9.60;99.90;;;;;;5084535;28;20018;-74
2023/12/16 12:09:44;;;;;;;15.60;6.85;;;9.60;99.90;;;;;;5021948;28;20045;-75
2023/12/16 12:12:12;;;;;;;16.02;7.28;;;9.60;99.90;;;;;;5028639;28;20036;-75
2023/12/16 12:14:39;;;;;;;21.00;8.05;;;9.60;99.90;;;;;;5027401;28;20106;-74
2023/12/16 12:17:05;;;;;;;12.32;6.95;;;9.60;99.90;;;;;;5028179;28;20485;-75
2023/12/16 12:19:31;;;;;;;19.83;7.40;;;9.60;99.90;;;;;;5026552;28;20490;-74
2023/12/16 12:21:56;;;;;;;17.45;7.65;;;9.60;99.90;;;;;;5023536;28;20030;-74
2023/12/16 12:24:22;;;;;;;17.63;7.53;;;9.60;99.90;;;;;;5027171;28;20024;-75
2023/12/16 12:26:48;;;;;;;19.17;7.78;;;9.60;99.90;;;;;;5028653;28;20030;-75
2023/12/16 12:29:13;;;;;;;15.85;7.53;;;9.60;99.90;;;;;;5031397;28;20053;-74
2023/12/16 12:31:46;;;;;;;17.25;8.38;;;9.60;99.90;;;;;;5030966;28;20075;-74
2023/12/16 12:34:22;;;;;;;17.92;8.15;;;9.70;99.90;;;;;;5024675;28;20124;-74
2023/12/16 12:36:54;;;;;;;17.55;7.95;;;9.70;99.90;;;;;;5024626;28;20038;-74
2023/12/16 12:39:20;;;;;;;16.92;8.50;;;9.70;99.90;;;;;;5024722;28;20033;-74
2023/12/16 12:42:00;;;;;;;22.52;9.60;;;9.70;99.90;;;;;;5030885;28;20362;-75
2023/12/16 12:44:26;;;;;;;16.67;9.77;;;9.70;99.90;;;;;;5017756;28;20018;-74
2023/12/16 12:46:51;;;;;;;20.95;9.68;;;9.70;99.90;;;;;;5028700;28;20085;-74
2023/12/16 12:49:18;;;;;;;18.00;9.77;;;9.70;99.90;;;;;;5031545;28;20470;-75
2023/12/16 12:51:51;;;;;;;21.23;11.10;;;9.70;99.90;;;;;;5023267;28;20432;-75
2023/12/16 12:54:20;;;;;;;21.90;10.77;;;9.80;99.90;;;;;;5024952;28;20082;-75
2023/12/16 12:56:46;;;;;;;21.77;11.40;;;9.80;99.90;;;;;;5031129;28;20033;-75
2023/12/16 12:59:12;;;;;;;23.45;11.13;;;9.80;99.90;;;;;;5022125;28;20079;-75
2023/12/16 13:01:38;;;;;;;21.52;10.93;;;9.80;99.90;;;;;;5069733;28;20022;-75
2023/12/16 13:04:03;;;;;;;20.92;11.00;;;9.80;99.90;;;;;;5099637;28;20029;-75
2023/12/16 13:06:29;;;;;;;21.25;11.57;;;9.90;99.90;;;;;;5023749;28;20074;-75
2023/12/16 13:08:55;;;;;;;20.55;11.13;;;9.90;99.90;;;;;;5022529;28;20022;-75
2023/12/16 13:11:21;;;;;;;18.95;10.80;;;9.90;99.90;;;;;;5031788;27;20417;-75
2023/12/16 13:13:47;;;;;;;24.63;11.40;;;9.90;99.90;;;;;;5028707;28;20047;-75
2023/12/16 13:16:14;;;;;;;23.17;11.18;;;9.90;99.90;;;;;;5030665;28;20170;-75
2023/12/16 13:18:43;;;;;;;18.50;10.77;;;9.90;99.90;;;;;;5097915;28;20029;-76
2023/12/16 13:21:32;;;;;;;18.45;10.57;;;9.90;99.90;;;;;;5099542;28;20035;-75
2023/12/16 13:24:00;;;;;;;17.35;10.27;;;10.00;99.90;;;;;;5090995;28;20037;-75
2023/12/16 13:26:28;;;;;;;20.10;10.38;;;10.00;99.90;;;;;;5023720;28;20025;-75
2023/12/16 13:28:54;;;;;;;16.00;9.13;;;9.90;99.90;;;;;;5030035;28;20512;-75
2023/12/16 13:31:20;;;;;;;21.17;9.93;;;9.90;99.90;;;;;;5030773;28;20097;-75
2023/12/16 13:33:45;;;;;;;23.55;10.32;;;9.90;99.90;;;;;;5030658;28;20021;-75
2023/12/16 13:36:11;;;;;;;19.58;9.32;;;9.90;99.90;;;;;;5030879;28;20506;-75
2023/12/16 13:38:37;;;;;;;25.50;10.32;;;10.00;99.90;;;;;;5098475;28;20022;-74
2023/12/16 13:41:03;;;;;;;22.50;10.25;;;9.90;99.90;;;;;;5027326;28;20016;-74
2023/12/16 13:43:29;;;;;;;24.20;9.90;;;9.90;99.90;;;;;;5025273;28;20030;-75
2023/12/16 13:45:54;;;;;;;19.10;8.73;;;10.00;99.90;;;;;;5029369;28;20025;-75
2023/12/16 13:48:20;;;;;;;18.92;9.30;;;10.00;99.90;;;;;;5023200;28;20034;-76
2023/12/16 13:50:46;;;;;;;25.35;9.48;;;10.00;99.90;;;;;;5112263;27;20481;-75
2023/12/16 13:53:11;;;;;;;19.67;9.27;;;10.00;99.90;;;;;;5098003;28;20042;-75
2023/12/16 13:55:37;;;;;;;22.20;8.57;;;10.00;99.90;;;;;;5022330;28;20030;-75